sensor_id;sensor_type;location;lat;lon;timestamp;temperature;humidity
31783;DHT22;18351;47.560;9.708;2023-07-08T00:00:19;19.90;70.30
31783;DHT22;18351;47.560;9.708;2023-07-08T00:02:45;19.90;70.10
31783;DHT22;18351;47.560;9.708;2023-07-08T00:05:12;19.90;71.60
31783;DHT22;18351;47.560;9.708;2023-07-08T00:07:39;19.90;70.70
31783;DHT22;18351;47.560;9.708;2023-07-08T00:10:29;19.80;70.50
31783;DHT22;18351;47.560;9.708;2023-07-08T00:12:56;19.80;70.80
31783;DHT22;18351;47.560;9.708;2023-07-08T00:15:27;19.80;71.30
31783;DHT22;18351;47.560;9.708;2023-07-08T00:17:54;19.70;71.60
31783;DHT22;18351;47.560;9.708;2023-07-08T00:20:37;19.50;72.50
31783;DHT22;18351;47.560;9.708;2023-07-08T00:23:04;19.40;72.70
31783;DHT22;18351;47.560;9.708;2023-07-08T00:25:30;19.40;72.80
31783;DHT22;18351;47.560;9.708;2023-07-08T00:27:56;19.40;73.10
31783;DHT22;18351;47.560;9.708;2023-07-08T00:32:48;19.30;73.60
31783;DHT22;18351;47.560;9.708;2023-07-08T00:35:24;19.30;73.70
31783;DHT22;18351;47.560;9.708;2023-07-08T00:37:52;19.30;73.80
31783;DHT22;18351;47.560;9.708;2023-07-08T00:40:20;19.30;73.70
31783;DHT22;18351;47.560;9.708;2023-07-08T00:42:47;19.30;73.60
31783;DHT22;18351;47.560;9.708;2023-07-08T00:45:21;19.40;73.90
31783;DHT22;18351;47.560;9.708;2023-07-08T00:47:47;19.40;73.60
31783;DHT22;18351;47.560;9.708;2023-07-08T00:50:15;19.40;73.20
31783;DHT22;18351;47.560;9.708;2023-07-08T00:52:42;19.50;73.80
31783;DHT22;18351;47.560;9.708;2023-07-08T00:55:09;19.50;74.30
31783;DHT22;18351;47.560;9.708;2023-07-08T00:57:38;19.50;75.00
31783;DHT22;18351;47.560;9.708;2023-07-08T01:00:10;19.40;75.60
31783;DHT22;18351;47.560;9.708;2023-07-08T01:02:46;19.50;75.60
31783;DHT22;18351;47.560;9.708;2023-07-08T01:05:22;19.50;75.30
31783;DHT22;18351;47.560;9.708;2023-07-08T01:07:52;19.40;75.40
31783;DHT22;18351;47.560;9.708;2023-07-08T01:10:25;19.40;76.20
31783;DHT22;18351;47.560;9.708;2023-07-08T01:12:54;19.40;76.80
31783;DHT22;18351;47.560;9.708;2023-07-08T01:15:25;19.40;76.40
31783;DHT22;18351;47.560;9.708;2023-07-08T01:17:53;19.30;76.70
31783;DHT22;18351;47.560;9.708;2023-07-08T01:20:20;19.30;77.50
31783;DHT22;18351;47.560;9.708;2023-07-08T01:22:45;19.30;77.90
31783;DHT22;18351;47.560;9.708;2023-07-08T01:25:11;19.30;77.50
31783;DHT22;18351;47.560;9.708;2023-07-08T01:27:42;19.30;78.00
31783;DHT22;18351;47.560;9.708;2023-07-08T01:30:10;19.40;78.50
31783;DHT22;18351;47.560;9.708;2023-07-08T01:32:40;19.40;78.30
31783;DHT22;18351;47.560;9.708;2023-07-08T01:35:09;19.50;79.10
31783;DHT22;18351;47.560;9.708;2023-07-08T01:37:49;19.50;79.90
31783;DHT22;18351;47.560;9.708;2023-07-08T01:42:50;19.60;81.90
31783;DHT22;18351;47.560;9.708;2023-07-08T01:45:18;19.60;81.30
31783;DHT22;18351;47.560;9.708;2023-07-08T01:47:47;19.60;82.80
31783;DHT22;18351;47.560;9.708;2023-07-08T01:50:14;19.60;82.80
31783;DHT22;18351;47.560;9.708;2023-07-08T01:52:40;19.60;83.80
31783;DHT22;18351;47.560;9.708;2023-07-08T01:55:06;19.60;85.50
31783;DHT22;18351;47.560;9.708;2023-07-08T01:57:32;19.50;86.70
31783;DHT22;18351;47.560;9.708;2023-07-08T01:59:57;19.60;87.50
31783;DHT22;18351;47.560;9.708;2023-07-08T02:02:23;19.60;88.70
31783;DHT22;18351;47.560;9.708;2023-07-08T02:04:49;19.50;89.90
31783;DHT22;18351;47.560;9.708;2023-07-08T02:07:15;19.50;90.80
31783;DHT22;18351;47.560;9.708;2023-07-08T02:09:41;19.40;91.40
31783;DHT22;18351;47.560;9.708;2023-07-08T02:12:07;19.40;91.90
31783;DHT22;18351;47.560;9.708;2023-07-08T02:14:32;19.30;91.90
31783;DHT22;18351;47.560;9.708;2023-07-08T02:16:58;19.30;92.10
31783;DHT22;18351;47.560;9.708;2023-07-08T02:19:24;19.30;92.50
31783;DHT22;18351;47.560;9.708;2023-07-08T02:21:50;19.30;93.10
31783;DHT22;18351;47.560;9.708;2023-07-08T02:24:17;19.30;93.50
31783;DHT22;18351;47.560;9.708;2023-07-08T02:26:43;19.40;93.90
31783;DHT22;18351;47.560;9.708;2023-07-08T02:29:08;19.40;94.30
31783;DHT22;18351;47.560;9.708;2023-07-08T02:31:34;19.40;94.90
31783;DHT22;18351;47.560;9.708;2023-07-08T02:34:00;19.40;95.80
31783;DHT22;18351;47.560;9.708;2023-07-08T02:36:27;19.40;96.50
31783;DHT22;18351;47.560;9.708;2023-07-08T02:38:53;19.40;96.90
31783;DHT22;18351;47.560;9.708;2023-07-08T02:41:19;19.30;98.00
31783;DHT22;18351;47.560;9.708;2023-07-08T02:43:44;19.30;99.10
31783;DHT22;18351;47.560;9.708;2023-07-08T02:46:10;19.20;99.90
31783;DHT22;18351;47.560;9.708;2023-07-08T02:48:36;19.20;99.90
31783;DHT22;18351;47.560;9.708;2023-07-08T02:51:03;19.20;99.90
31783;DHT22;18351;47.560;9.708;2023-07-08T02:53:30;19.10;99.90
31783;DHT22;18351;47.560;9.708;2023-07-08T02:55:55;19.10;99.90
31783;DHT22;18351;47.560;9.708;2023-07-08T02:58:21;19.20;99.90
31783;DHT22;18351;47.560;9.708;2023-07-08T03:00:57;19.20;99.90
31783;DHT22;18351;47.560;9.708;2023-07-08T03:03:27;19.20;99.90
31783;DHT22;18351;47.560;9.708;2023-07-08T03:06:00;19.20;99.90
31783;DHT22;18351;47.560;9.708;2023-07-08T03:08:26;19.20;99.90
31783;DHT22;18351;47.560;9.708;2023-07-08T03:10:57;19.30;99.90
31783;DHT22;18351;47.560;9.708;2023-07-08T03:13:23;19.40;99.90
31783;DHT22;18351;47.560;9.708;2023-07-08T03:15:50;19.40;99.90
31783;DHT22;18351;47.560;9.708;2023-07-08T03:18:15;19.40;99.90
31783;DHT22;18351;47.560;9.708;2023-07-08T03:20:41;19.40;99.90
31783;DHT22;18351;47.560;9.708;2023-07-08T03:23:10;19.40;99.90
31783;DHT22;18351;47.560;9.708;2023-07-08T03:25:36;19.40;99.90
31783;DHT22;18351;47.560;9.708;2023-07-08T03:28:03;19.40;99.90
31783;DHT22;18351;47.560;9.708;2023-07-08T03:30:32;19.30;99.90
31783;DHT22;18351;47.560;9.708;2023-07-08T03:32:58;19.30;99.90
31783;DHT22;18351;47.560;9.708;2023-07-08T03:35:23;19.20;99.90
31783;DHT22;18351;47.560;9.708;2023-07-08T03:37:49;19.20;99.90
31783;DHT22;18351;47.560;9.708;2023-07-08T03:40:14;19.10;99.90
31783;DHT22;18351;47.560;9.708;2023-07-08T03:42:40;19.20;99.90
31783;DHT22;18351;47.560;9.708;2023-07-08T03:45:06;19.10;99.90
31783;DHT22;18351;47.560;9.708;2023-07-08T03:47:31;19.10;99.90
31783;DHT22;18351;47.560;9.708;2023-07-08T03:49:57;19.10;99.90
31783;DHT22;18351;47.560;9.708;2023-07-08T03:52:23;19.10;99.90
31783;DHT22;18351;47.560;9.708;2023-07-08T03:54:48;19.10;99.90
31783;DHT22;18351;47.560;9.708;2023-07-08T03:57:14;19.20;99.90
31783;DHT22;18351;47.560;9.708;2023-07-08T03:59:40;19.10;99.90
31783;DHT22;18351;47.560;9.708;2023-07-08T04:02:05;19.10;99.90
31783;DHT22;18351;47.560;9.708;2023-07-08T04:04:31;19.20;99.90
31783;DHT22;18351;47.560;9.708;2023-07-08T04:06:56;19.20;99.90
31783;DHT22;18351;47.560;9.708;2023-07-08T04:09:22;19.20;99.90
31783;DHT22;18351;47.560;9.708;2023-07-08T04:11:48;19.20;99.90
31783;DHT22;18351;47.560;9.708;2023-07-08T04:14:13;19.30;99.90
31783;DHT22;18351;47.560;9.708;2023-07-08T04:16:51;19.20;99.90
31783;DHT22;18351;47.560;9.708;2023-07-08T04:19:17;19.20;99.90
31783;DHT22;18351;47.560;9.708;2023-07-08T04:21:44;19.10;99.90
31783;DHT22;18351;47.560;9.708;2023-07-08T04:24:11;19.10;99.90
31783;DHT22;18351;47.560;9.708;2023-07-08T04:26:37;19.20;99.90
31783;DHT22;18351;47.560;9.708;2023-07-08T04:29:13;19.20;99.90
31783;DHT22;18351;47.560;9.708;2023-07-08T04:31:39;19.30;99.90
31783;DHT22;18351;47.560;9.708;2023-07-08T04:34:05;19.30;99.90
31783;DHT22;18351;47.560;9.708;2023-07-08T04:36:31;19.30;99.90
31783;DHT22;18351;47.560;9.708;2023-07-08T04:38:57;19.30;99.90
31783;DHT22;18351;47.560;9.708;2023-07-08T04:41:24;19.20;99.90
31783;DHT22;18351;47.560;9.708;2023-07-08T04:43:51;19.20;99.90
31783;DHT22;18351;47.560;9.708;2023-07-08T04:46:37;19.30;99.90
31783;DHT22;18351;47.560;9.708;2023-07-08T04:49:07;19.40;99.90
31783;DHT22;18351;47.560;9.708;2023-07-08T04:51:35;19.50;99.90
31783;DHT22;18351;47.560;9.708;2023-07-08T04:54:01;19.50;99.90
31783;DHT22;18351;47.560;9.708;2023-07-08T04:56:36;19.70;99.90
31783;DHT22;18351;47.560;9.708;2023-07-08T04:59:02;19.80;99.90
31783;DHT22;18351;47.560;9.708;2023-07-08T05:01:28;19.90;99.90
31783;DHT22;18351;47.560;9.708;2023-07-08T05:03:54;20.00;99.90
31783;DHT22;18351;47.560;9.708;2023-07-08T05:06:19;20.20;99.90
31783;DHT22;18351;47.560;9.708;2023-07-08T05:08:45;20.20;99.90
31783;DHT22;18351;47.560;9.708;2023-07-08T05:11:10;20.20;99.90
31783;DHT22;18351;47.560;9.708;2023-07-08T05:13:36;20.30;99.90
31783;DHT22;18351;47.560;9.708;2023-07-08T05:16:01;20.30;99.90
31783;DHT22;18351;47.560;9.708;2023-07-08T05:18:27;20.40;99.90
31783;DHT22;18351;47.560;9.708;2023-07-08T05:20:53;20.40;99.90
31783;DHT22;18351;47.560;9.708;2023-07-08T05:23:20;20.50;99.90
31783;DHT22;18351;47.560;9.708;2023-07-08T05:25:45;20.60;99.90
31783;DHT22;18351;47.560;9.708;2023-07-08T05:28:11;20.80;99.90
31783;DHT22;18351;47.560;9.708;2023-07-08T05:30:40;20.90;99.90
31783;DHT22;18351;47.560;9.708;2023-07-08T05:33:05;20.90;99.90
31783;DHT22;18351;47.560;9.708;2023-07-08T05:35:31;21.10;99.90
31783;DHT22;18351;47.560;9.708;2023-07-08T05:37:56;21.10;99.90
31783;DHT22;18351;47.560;9.708;2023-07-08T05:40:22;21.10;99.90
31783;DHT22;18351;47.560;9.708;2023-07-08T05:42:48;21.30;99.90
31783;DHT22;18351;47.560;9.708;2023-07-08T05:45:13;21.40;99.90
31783;DHT22;18351;47.560;9.708;2023-07-08T05:47:39;21.40;99.90
31783;DHT22;18351;47.560;9.708;2023-07-08T05:50:05;21.50;99.90
31783;DHT22;18351;47.560;9.708;2023-07-08T05:52:31;21.60;99.90
31783;DHT22;18351;47.560;9.708;2023-07-08T05:54:56;21.70;99.90
31783;DHT22;18351;47.560;9.708;2023-07-08T05:57:22;21.80;99.90
31783;DHT22;18351;47.560;9.708;2023-07-08T05:59:51;21.70;99.90
31783;DHT22;18351;47.560;9.708;2023-07-08T06:02:18;21.70;99.90
31783;DHT22;18351;47.560;9.708;2023-07-08T06:04:45;21.70;99.90
31783;DHT22;18351;47.560;9.708;2023-07-08T06:07:10;21.60;99.90
31783;DHT22;18351;47.560;9.708;2023-07-08T06:09:36;21.80;99.90
31783;DHT22;18351;47.560;9.708;2023-07-08T06:12:02;21.90;99.90
31783;DHT22;18351;47.560;9.708;2023-07-08T06:14:28;22.00;99.90
31783;DHT22;18351;47.560;9.708;2023-07-08T06:16:53;22.20;99.90
31783;DHT22;18351;47.560;9.708;2023-07-08T06:19:20;22.10;99.90
31783;DHT22;18351;47.560;9.708;2023-07-08T06:21:46;22.40;99.90
31783;DHT22;18351;47.560;9.708;2023-07-08T06:24:11;22.60;99.90
31783;DHT22;18351;47.560;9.708;2023-07-08T06:26:37;22.50;99.90
31783;DHT22;18351;47.560;9.708;2023-07-08T06:29:03;22.60;99.90
31783;DHT22;18351;47.560;9.708;2023-07-08T06:31:29;22.70;99.90
31783;DHT22;18351;47.560;9.708;2023-07-08T06:33:55;23.00;99.90
31783;DHT22;18351;47.560;9.708;2023-07-08T06:36:20;23.10;99.90
31783;DHT22;18351;47.560;9.708;2023-07-08T06:38:46;23.50;99.90
31783;DHT22;18351;47.560;9.708;2023-07-08T06:41:11;23.70;99.40
31783;DHT22;18351;47.560;9.708;2023-07-08T06:43:37;23.90;98.90
31783;DHT22;18351;47.560;9.708;2023-07-08T06:46:02;24.00;98.00
31783;DHT22;18351;47.560;9.708;2023-07-08T06:48:28;24.00;97.30
31783;DHT22;18351;47.560;9.708;2023-07-08T06:50:54;24.00;96.30
31783;DHT22;18351;47.560;9.708;2023-07-08T06:53:20;24.10;95.50
31783;DHT22;18351;47.560;9.708;2023-07-08T06:55:46;24.40;95.70
31783;DHT22;18351;47.560;9.708;2023-07-08T06:58:12;24.80;94.20
31783;DHT22;18351;47.560;9.708;2023-07-08T07:00:37;24.80;93.30
31783;DHT22;18351;47.560;9.708;2023-07-08T07:03:03;24.80;92.90
31783;DHT22;18351;47.560;9.708;2023-07-08T07:05:29;24.70;92.80
31783;DHT22;18351;47.560;9.708;2023-07-08T07:07:55;24.60;92.00
31783;DHT22;18351;47.560;9.708;2023-07-08T07:10:21;24.60;92.20
31783;DHT22;18351;47.560;9.708;2023-07-08T07:12:47;24.70;91.50
31783;DHT22;18351;47.560;9.708;2023-07-08T07:15:12;24.90;92.70
31783;DHT22;18351;47.560;9.708;2023-07-08T07:17:38;25.00;92.20
31783;DHT22;18351;47.560;9.708;2023-07-08T07:20:04;25.00;90.40
31783;DHT22;18351;47.560;9.708;2023-07-08T07:22:30;25.10;90.50
31783;DHT22;18351;47.560;9.708;2023-07-08T07:24:56;25.30;90.00
31783;DHT22;18351;47.560;9.708;2023-07-08T07:27:22;25.60;90.20
31783;DHT22;18351;47.560;9.708;2023-07-08T07:29:49;25.70;86.60
31783;DHT22;18351;47.560;9.708;2023-07-08T07:32:16;26.00;88.60
31783;DHT22;18351;47.560;9.708;2023-07-08T07:34:42;26.20;87.40
31783;DHT22;18351;47.560;9.708;2023-07-08T07:37:12;26.40;88.70
31783;DHT22;18351;47.560;9.708;2023-07-08T07:39:38;26.50;85.30
31783;DHT22;18351;47.560;9.708;2023-07-08T07:42:04;26.70;83.30
31783;DHT22;18351;47.560;9.708;2023-07-08T07:44:30;26.90;84.40
31783;DHT22;18351;47.560;9.708;2023-07-08T07:46:55;27.10;79.90
31783;DHT22;18351;47.560;9.708;2023-07-08T07:49:21;27.30;79.20
31783;DHT22;18351;47.560;9.708;2023-07-08T07:51:47;27.50;76.80
31783;DHT22;18351;47.560;9.708;2023-07-08T07:54:14;27.70;76.10
31783;DHT22;18351;47.560;9.708;2023-07-08T07:56:39;28.00;74.30
31783;DHT22;18351;47.560;9.708;2023-07-08T07:59:05;28.20;71.10
31783;DHT22;18351;47.560;9.708;2023-07-08T08:01:31;28.30;70.10
31783;DHT22;18351;47.560;9.708;2023-07-08T08:03:56;28.50;67.10
31783;DHT22;18351;47.560;9.708;2023-07-08T08:06:22;28.50;67.50
31783;DHT22;18351;47.560;9.708;2023-07-08T08:08:48;28.50;66.00
31783;DHT22;18351;47.560;9.708;2023-07-08T08:11:15;28.50;63.00
31783;DHT22;18351;47.560;9.708;2023-07-08T08:13:41;28.20;62.70
31783;DHT22;18351;47.560;9.708;2023-07-08T08:16:06;27.90;64.50
31783;DHT22;18351;47.560;9.708;2023-07-08T08:18:32;27.90;63.80
31783;DHT22;18351;47.560;9.708;2023-07-08T08:20:57;27.60;61.80
31783;DHT22;18351;47.560;9.708;2023-07-08T08:23:23;27.40;66.80
31783;DHT22;18351;47.560;9.708;2023-07-08T08:25:50;27.30;63.80
31783;DHT22;18351;47.560;9.708;2023-07-08T08:28:16;27.40;66.50
31783;DHT22;18351;47.560;9.708;2023-07-08T08:30:41;27.60;65.40
31783;DHT22;18351;47.560;9.708;2023-07-08T08:33:07;27.70;63.10
31783;DHT22;18351;47.560;9.708;2023-07-08T08:35:32;27.70;65.70
31783;DHT22;18351;47.560;9.708;2023-07-08T08:37:58;27.70;64.70
31783;DHT22;18351;47.560;9.708;2023-07-08T08:40:24;27.70;66.20
31783;DHT22;18351;47.560;9.708;2023-07-08T08:43:04;27.40;65.80
31783;DHT22;18351;47.560;9.708;2023-07-08T08:45:39;27.10;65.50
31783;DHT22;18351;47.560;9.708;2023-07-08T08:48:10;27.00;65.40
31783;DHT22;18351;47.560;9.708;2023-07-08T08:50:55;27.00;66.30
31783;DHT22;18351;47.560;9.708;2023-07-08T08:53:23;26.90;65.80
31783;DHT22;18351;47.560;9.708;2023-07-08T08:58:44;26.60;67.30
31783;DHT22;18351;47.560;9.708;2023-07-08T09:01:15;26.40;66.70
31783;DHT22;18351;47.560;9.708;2023-07-08T09:03:54;26.40;68.70
31783;DHT22;18351;47.560;9.708;2023-07-08T09:06:27;26.40;66.40
31783;DHT22;18351;47.560;9.708;2023-07-08T09:08:56;26.60;66.70
31783;DHT22;18351;47.560;9.708;2023-07-08T09:14:04;26.60;65.50
31783;DHT22;18351;47.560;9.708;2023-07-08T09:22:04;26.80;64.70
31783;DHT22;18351;47.560;9.708;2023-07-08T09:24:44;27.30;63.00
31783;DHT22;18351;47.560;9.708;2023-07-08T09:27:11;27.60;61.20
31783;DHT22;18351;47.560;9.708;2023-07-08T09:29:36;27.60;61.10
31783;DHT22;18351;47.560;9.708;2023-07-08T09:32:17;27.60;61.10
31783;DHT22;18351;47.560;9.708;2023-07-08T09:34:54;27.80;60.50
31783;DHT22;18351;47.560;9.708;2023-07-08T09:37:38;27.50;60.10
31783;DHT22;18351;47.560;9.708;2023-07-08T09:40:14;27.50;59.50
31783;DHT22;18351;47.560;9.708;2023-07-08T09:42:43;27.70;61.70
31783;DHT22;18351;47.560;9.708;2023-07-08T09:45:16;27.60;61.60
31783;DHT22;18351;47.560;9.708;2023-07-08T09:47:43;27.70;62.90
31783;DHT22;18351;47.560;9.708;2023-07-08T09:50:20;27.60;60.80
31783;DHT22;18351;47.560;9.708;2023-07-08T09:52:48;27.70;61.90
31783;DHT22;18351;47.560;9.708;2023-07-08T09:55:15;27.70;60.90
31783;DHT22;18351;47.560;9.708;2023-07-08T09:57:40;27.70;61.70
31783;DHT22;18351;47.560;9.708;2023-07-08T10:00:12;27.40;61.90
31783;DHT22;18351;47.560;9.708;2023-07-08T10:02:45;27.50;62.00
31783;DHT22;18351;47.560;9.708;2023-07-08T10:05:27;27.70;61.10
31783;DHT22;18351;47.560;9.708;2023-07-08T10:07:56;27.70;62.70
31783;DHT22;18351;47.560;9.708;2023-07-08T10:10:34;28.30;62.40
31783;DHT22;18351;47.560;9.708;2023-07-08T10:13:04;28.70;60.40
31783;DHT22;18351;47.560;9.708;2023-07-08T10:15:40;28.90;59.40
31783;DHT22;18351;47.560;9.708;2023-07-08T10:18:17;28.90;59.60
31783;DHT22;18351;47.560;9.708;2023-07-08T10:23:48;29.20;58.60
31783;DHT22;18351;47.560;9.708;2023-07-08T10:26:28;29.60;58.20
31783;DHT22;18351;47.560;9.708;2023-07-08T10:31:47;29.50;54.90
31783;DHT22;18351;47.560;9.708;2023-07-08T10:34:27;29.50;55.10
31783;DHT22;18351;47.560;9.708;2023-07-08T10:37:04;29.60;56.60
31783;DHT22;18351;47.560;9.708;2023-07-08T10:56:12;30.30;54.60
31783;DHT22;18351;47.560;9.708;2023-07-08T10:58:51;30.30;54.90
31783;DHT22;18351;47.560;9.708;2023-07-08T11:07:30;30.80;55.70
31783;DHT22;18351;47.560;9.708;2023-07-08T11:10:07;30.60;53.50
31783;DHT22;18351;47.560;9.708;2023-07-08T11:13:10;30.60;55.80
31783;DHT22;18351;47.560;9.708;2023-07-08T11:15:48;30.70;55.10
31783;DHT22;18351;47.560;9.708;2023-07-08T11:23:43;30.80;52.60
31783;DHT22;18351;47.560;9.708;2023-07-08T11:26:32;30.80;52.30
31783;DHT22;18351;47.560;9.708;2023-07-08T11:29:01;30.90;56.60
31783;DHT22;18351;47.560;9.708;2023-07-08T11:31:32;31.20;57.80
31783;DHT22;18351;47.560;9.708;2023-07-08T11:33:59;31.20;55.60
31783;DHT22;18351;47.560;9.708;2023-07-08T11:36:27;31.00;55.40
31783;DHT22;18351;47.560;9.708;2023-07-08T11:38:56;30.80;56.50
31783;DHT22;18351;47.560;9.708;2023-07-08T11:41:24;30.80;56.20
31783;DHT22;18351;47.560;9.708;2023-07-08T11:43:52;30.60;56.70
31783;DHT22;18351;47.560;9.708;2023-07-08T11:46:24;30.30;57.70
31783;DHT22;18351;47.560;9.708;2023-07-08T11:48:53;30.10;59.10
31783;DHT22;18351;47.560;9.708;2023-07-08T11:51:31;30.10;59.20
31783;DHT22;18351;47.560;9.708;2023-07-08T11:54:26;30.20;62.40
31783;DHT22;18351;47.560;9.708;2023-07-08T11:59:21;30.60;58.20
31783;DHT22;18351;47.560;9.708;2023-07-08T12:02:01;30.70;57.60
31783;DHT22;18351;47.560;9.708;2023-07-08T12:07:17;31.00;59.60
31783;DHT22;18351;47.560;9.708;2023-07-08T12:10:13;31.20;58.10
31783;DHT22;18351;47.560;9.708;2023-07-08T12:12:42;31.40;55.30
31783;DHT22;18351;47.560;9.708;2023-07-08T12:15:30;31.50;58.40
31783;DHT22;18351;47.560;9.708;2023-07-08T12:18:04;31.40;59.80
31783;DHT22;18351;47.560;9.708;2023-07-08T12:20:34;31.40;58.40
31783;DHT22;18351;47.560;9.708;2023-07-08T12:23:01;31.60;57.90
31783;DHT22;18351;47.560;9.708;2023-07-08T12:25:33;31.80;57.00
31783;DHT22;18351;47.560;9.708;2023-07-08T12:28:00;31.90;58.10
31783;DHT22;18351;47.560;9.708;2023-07-08T12:30:28;31.70;58.40
31783;DHT22;18351;47.560;9.708;2023-07-08T12:32:55;31.60;57.90
31783;DHT22;18351;47.560;9.708;2023-07-08T12:35:32;31.70;58.10
31783;DHT22;18351;47.560;9.708;2023-07-08T12:37:58;31.80;60.20
31783;DHT22;18351;47.560;9.708;2023-07-08T12:40:27;31.90;60.80
31783;DHT22;18351;47.560;9.708;2023-07-08T12:42:53;31.90;58.50
31783;DHT22;18351;47.560;9.708;2023-07-08T12:45:21;31.90;59.30
31783;DHT22;18351;47.560;9.708;2023-07-08T12:47:48;31.60;62.30
31783;DHT22;18351;47.560;9.708;2023-07-08T12:50:14;31.50;64.80
31783;DHT22;18351;47.560;9.708;2023-07-08T12:52:42;31.30;61.30
31783;DHT22;18351;47.560;9.708;2023-07-08T12:55:09;31.20;63.40
31783;DHT22;18351;47.560;9.708;2023-07-08T12:57:42;31.10;66.50
31783;DHT22;18351;47.560;9.708;2023-07-08T13:00:20;30.80;65.60
31783;DHT22;18351;47.560;9.708;2023-07-08T13:02:48;30.90;67.10
31783;DHT22;18351;47.560;9.708;2023-07-08T13:05:18;31.00;67.90
31783;DHT22;18351;47.560;9.708;2023-07-08T13:07:46;31.20;64.60
31783;DHT22;18351;47.560;9.708;2023-07-08T13:10:21;31.30;65.00
31783;DHT22;18351;47.560;9.708;2023-07-08T13:12:54;31.50;62.70
31783;DHT22;18351;47.560;9.708;2023-07-08T13:15:29;31.50;63.10
31783;DHT22;18351;47.560;9.708;2023-07-08T13:17:56;31.50;63.50
31783;DHT22;18351;47.560;9.708;2023-07-08T13:20:22;31.40;63.30
31783;DHT22;18351;47.560;9.708;2023-07-08T13:22:56;31.20;63.10
31783;DHT22;18351;47.560;9.708;2023-07-08T13:25:30;31.10;62.60
31783;DHT22;18351;47.560;9.708;2023-07-08T13:30:51;30.70;62.60
31783;DHT22;18351;47.560;9.708;2023-07-08T13:33:18;30.40;62.50
31783;DHT22;18351;47.560;9.708;2023-07-08T13:35:44;30.20;64.40
31783;DHT22;18351;47.560;9.708;2023-07-08T13:38:18;30.10;66.20
31783;DHT22;18351;47.560;9.708;2023-07-08T13:40:47;30.00;66.50
31783;DHT22;18351;47.560;9.708;2023-07-08T13:43:13;29.90;67.00
31783;DHT22;18351;47.560;9.708;2023-07-08T13:45:44;29.70;65.50
31783;DHT22;18351;47.560;9.708;2023-07-08T13:51:06;29.30;66.70
31783;DHT22;18351;47.560;9.708;2023-07-08T13:53:51;29.20;69.20
31783;DHT22;18351;47.560;9.708;2023-07-08T13:56:33;29.10;68.30
31783;DHT22;18351;47.560;9.708;2023-07-08T13:59:14;29.10;67.80
31783;DHT22;18351;47.560;9.708;2023-07-08T14:01:42;29.10;69.00
31783;DHT22;18351;47.560;9.708;2023-07-08T14:04:13;29.30;68.90
31783;DHT22;18351;47.560;9.708;2023-07-08T14:06:40;29.40;69.10
31783;DHT22;18351;47.560;9.708;2023-07-08T14:09:18;29.60;69.70
31783;DHT22;18351;47.560;9.708;2023-07-08T14:11:44;29.90;66.10
31783;DHT22;18351;47.560;9.708;2023-07-08T14:14:10;30.00;68.90
31783;DHT22;18351;47.560;9.708;2023-07-08T14:16:39;30.00;68.70
31783;DHT22;18351;47.560;9.708;2023-07-08T14:19:07;30.00;67.50
31783;DHT22;18351;47.560;9.708;2023-07-08T14:21:33;30.10;67.70
31783;DHT22;18351;47.560;9.708;2023-07-08T14:24:00;30.10;68.30
31783;DHT22;18351;47.560;9.708;2023-07-08T14:26:27;30.10;67.90
31783;DHT22;18351;47.560;9.708;2023-07-08T14:28:53;30.20;68.70
31783;DHT22;18351;47.560;9.708;2023-07-08T14:31:22;30.20;68.10
31783;DHT22;18351;47.560;9.708;2023-07-08T14:33:50;30.30;67.20
31783;DHT22;18351;47.560;9.708;2023-07-08T14:36:16;30.20;68.30
31783;DHT22;18351;47.560;9.708;2023-07-08T14:38:42;30.30;68.80
31783;DHT22;18351;47.560;9.708;2023-07-08T14:41:08;30.20;69.90
31783;DHT22;18351;47.560;9.708;2023-07-08T14:43:34;30.10;71.10
31783;DHT22;18351;47.560;9.708;2023-07-08T14:46:03;30.10;70.40
31783;DHT22;18351;47.560;9.708;2023-07-08T14:48:31;30.10;65.00
31783;DHT22;18351;47.560;9.708;2023-07-08T14:50:56;30.00;65.70
31783;DHT22;18351;47.560;9.708;2023-07-08T14:53:22;30.00;67.20
31783;DHT22;18351;47.560;9.708;2023-07-08T14:55:50;30.10;65.40
31783;DHT22;18351;47.560;9.708;2023-07-08T14:58:24;30.10;61.40
31783;DHT22;18351;47.560;9.708;2023-07-08T15:00:55;30.20;57.70
31783;DHT22;18351;47.560;9.708;2023-07-08T15:03:24;30.20;58.40
31783;DHT22;18351;47.560;9.708;2023-07-08T15:05:50;30.20;61.00
31783;DHT22;18351;47.560;9.708;2023-07-08T15:08:15;30.30;60.00
31783;DHT22;18351;47.560;9.708;2023-07-08T15:10:48;30.30;57.40
31783;DHT22;18351;47.560;9.708;2023-07-08T15:13:15;30.40;58.00
31783;DHT22;18351;47.560;9.708;2023-07-08T15:15:42;30.40;58.40
31783;DHT22;18351;47.560;9.708;2023-07-08T15:18:14;30.40;61.30
31783;DHT22;18351;47.560;9.708;2023-07-08T15:20:40;30.40;62.90
31783;DHT22;18351;47.560;9.708;2023-07-08T15:23:07;30.40;61.80
31783;DHT22;18351;47.560;9.708;2023-07-08T15:25:33;30.40;61.90
31783;DHT22;18351;47.560;9.708;2023-07-08T15:28:01;30.40;61.60
31783;DHT22;18351;47.560;9.708;2023-07-08T15:30:29;30.30;61.40
31783;DHT22;18351;47.560;9.708;2023-07-08T15:32:55;30.30;62.00
31783;DHT22;18351;47.560;9.708;2023-07-08T15:35:26;30.40;62.00
31783;DHT22;18351;47.560;9.708;2023-07-08T15:37:56;30.40;62.90
31783;DHT22;18351;47.560;9.708;2023-07-08T15:40:23;30.30;64.10
31783;DHT22;18351;47.560;9.708;2023-07-08T15:42:54;30.30;65.10
31783;DHT22;18351;47.560;9.708;2023-07-08T15:45:25;30.30;66.00
31783;DHT22;18351;47.560;9.708;2023-07-08T15:47:52;30.30;65.60
31783;DHT22;18351;47.560;9.708;2023-07-08T15:50:22;30.30;63.40
31783;DHT22;18351;47.560;9.708;2023-07-08T15:52:49;30.20;66.40
31783;DHT22;18351;47.560;9.708;2023-07-08T15:55:27;30.10;65.50
31783;DHT22;18351;47.560;9.708;2023-07-08T15:58:01;30.20;65.20
31783;DHT22;18351;47.560;9.708;2023-07-08T16:00:29;30.20;64.40
31783;DHT22;18351;47.560;9.708;2023-07-08T16:03:00;30.20;64.90
31783;DHT22;18351;47.560;9.708;2023-07-08T16:05:27;30.20;65.80
31783;DHT22;18351;47.560;9.708;2023-07-08T16:07:54;30.20;65.00
31783;DHT22;18351;47.560;9.708;2023-07-08T16:10:21;30.10;63.50
31783;DHT22;18351;47.560;9.708;2023-07-08T16:12:47;30.10;60.50
31783;DHT22;18351;47.560;9.708;2023-07-08T16:15:20;30.10;62.00
31783;DHT22;18351;47.560;9.708;2023-07-08T16:17:48;30.10;60.80
31783;DHT22;18351;47.560;9.708;2023-07-08T16:20:17;30.10;60.20
31783;DHT22;18351;47.560;9.708;2023-07-08T16:22:43;30.10;59.00
31783;DHT22;18351;47.560;9.708;2023-07-08T16:25:13;30.10;59.10
31783;DHT22;18351;47.560;9.708;2023-07-08T16:27:39;30.20;59.40
31783;DHT22;18351;47.560;9.708;2023-07-08T16:30:05;30.20;58.50
31783;DHT22;18351;47.560;9.708;2023-07-08T16:32:31;30.10;58.30
31783;DHT22;18351;47.560;9.708;2023-07-08T16:34:56;30.10;57.90
31783;DHT22;18351;47.560;9.708;2023-07-08T16:37:22;30.10;58.90
31783;DHT22;18351;47.560;9.708;2023-07-08T16:39:47;30.00;57.50